createdAt,value
2022-11-24T00:00:52.628Z,98.51
2022-11-24T00:03:19.606Z,99.31
2022-11-24T00:05:46.313Z,98.84
2022-11-24T00:08:13.139Z,98.69
2022-11-24T00:10:39.801Z,98.37
2022-11-24T00:13:06.476Z,98.03
2022-11-24T00:15:33.145Z,98.15
2022-11-24T00:17:59.808Z,99.13
2022-11-24T00:20:27.194Z,99.00
2022-11-24T00:22:53.927Z,99.18
2022-11-24T00:25:20.542Z,99.46
2022-11-24T00:27:47.282Z,99.09
2022-11-24T00:30:14.034Z,99.48
2022-11-24T00:32:40.656Z,99.50
2022-11-24T00:35:07.751Z,99.89
2022-11-24T00:37:34.416Z,99.35
2022-11-24T00:40:01.111Z,98.80
2022-11-24T00:42:27.718Z,99.11
2022-11-24T00:44:54.383Z,99.46
2022-11-24T00:47:20.992Z,99.34
2022-11-24T00:49:47.644Z,99.33
2022-11-24T00:52:14.223Z,99.07
2022-11-24T00:54:40.896Z,98.95
2022-11-24T00:57:07.511Z,99.05
2022-11-24T00:59:34.230Z,99.54
2022-11-24T01:02:00.886Z,98.77
2022-11-24T01:04:27.602Z,99.32
2022-11-24T01:06:54.315Z,99.29
2022-11-24T01:09:20.960Z,99.05
2022-11-24T01:12:02.760Z,100.00
2022-11-24T01:14:30.879Z,100.00
2022-11-24T01:16:57.863Z,100.00
2022-11-24T01:19:24.611Z,100.00
2022-11-24T01:21:51.241Z,100.00
2022-11-24T01:24:18.169Z,100.00
2022-11-24T01:26:44.982Z,100.00
2022-11-24T01:29:12.426Z,100.00
2022-11-24T01:31:39.527Z,100.00
2022-11-24T01:34:06.350Z,100.00
2022-11-24T01:36:33.474Z,100.00
2022-11-24T01:39:00.166Z,100.00
2022-11-24T01:41:27.158Z,100.00
2022-11-24T01:43:55.132Z,100.00
2022-11-24T01:46:28.023Z,100.00
2022-11-24T01:49:17.987Z,100.00
2022-11-24T01:51:58.624Z,100.00
2022-11-24T01:54:32.248Z,100.00
2022-11-24T01:57:10.147Z,100.00
2022-11-24T01:59:37.365Z,100.00
2022-11-24T02:02:04.704Z,100.00
2022-11-24T02:04:33.712Z,100.00
2022-11-24T02:07:03.421Z,100.00
2022-11-24T02:09:40.430Z,100.00
2022-11-24T02:12:07.281Z,100.00
2022-11-24T02:14:36.334Z,100.00
2022-11-24T02:17:03.111Z,100.00
2022-11-24T02:19:55.522Z,100.00
2022-11-24T02:22:48.212Z,100.00
2022-11-24T02:25:29.547Z,100.00
2022-11-24T02:27:59.395Z,100.00
2022-11-24T02:30:26.079Z,100.00
2022-11-24T02:32:52.850Z,100.00
2022-11-24T02:35:20.165Z,100.00
2022-11-24T02:37:46.768Z,100.00
2022-11-24T02:40:23.056Z,100.00
2022-11-24T02:42:49.842Z,100.00
2022-11-24T02:45:16.892Z,100.00
2022-11-24T02:47:43.764Z,100.00
2022-11-24T02:50:10.507Z,100.00
2022-11-24T02:52:37.333Z,100.00
2022-11-24T02:55:04.822Z,100.00
2022-11-24T02:57:31.504Z,100.00
2022-11-24T02:59:58.168Z,100.00
2022-11-24T03:02:24.796Z,100.00
2022-11-24T03:04:51.578Z,100.00
2022-11-24T03:07:18.291Z,100.00
2022-11-24T03:09:44.978Z,100.00
2022-11-24T03:12:11.646Z,100.00
2022-11-24T03:14:38.273Z,100.00
2022-11-24T03:17:04.973Z,100.00
2022-11-24T03:19:31.601Z,100.00
2022-11-24T03:21:58.274Z,100.00
2022-11-24T03:24:24.921Z,100.00
2022-11-24T03:26:51.666Z,100.00
2022-11-24T03:29:18.303Z,100.00
2022-11-24T03:31:44.904Z,100.00
2022-11-24T03:34:11.658Z,100.00
2022-11-24T03:36:38.363Z,100.00
2022-11-24T03:39:05.217Z,100.00
2022-11-24T03:41:31.800Z,100.00
2022-11-24T03:43:58.391Z,100.00
2022-11-24T03:46:25.172Z,100.00
2022-11-24T03:48:51.838Z,100.00
2022-11-24T03:51:18.533Z,100.00
2022-11-24T03:53:45.108Z,100.00
2022-11-24T03:56:11.718Z,100.00
2022-11-24T03:58:38.656Z,100.00
2022-11-24T04:01:05.323Z,100.00
2022-11-24T04:03:32.128Z,100.00
2022-11-24T04:05:58.745Z,100.00
2022-11-24T04:08:25.414Z,100.00
2022-11-24T04:10:53.819Z,100.00
2022-11-24T04:13:24.304Z,100.00
2022-11-24T04:15:51.331Z,100.00
2022-11-24T04:18:18.518Z,100.00
2022-11-24T04:20:45.518Z,100.00
2022-11-24T04:23:12.341Z,100.00
2022-11-24T04:25:39.276Z,100.00
2022-11-24T04:28:06.157Z,100.00
2022-11-24T04:30:33.078Z,100.00
2022-11-24T04:32:59.828Z,100.00
2022-11-24T04:35:26.550Z,100.00
2022-11-24T04:37:53.181Z,100.00
2022-11-24T04:40:20.171Z,100.00
2022-11-24T04:42:55.013Z,100.00
2022-11-24T04:45:22.690Z,100.00
2022-11-24T04:47:49.292Z,100.00
2022-11-24T04:50:16.597Z,100.00
2022-11-24T04:52:43.593Z,100.00
2022-11-24T04:55:10.951Z,100.00
2022-11-24T04:57:38.331Z,100.00
2022-11-24T05:00:06.002Z,100.00
2022-11-24T05:02:32.637Z,100.00
2022-11-24T05:04:59.204Z,100.00
2022-11-24T05:07:25.907Z,100.00
2022-11-24T05:10:11.105Z,100.00
2022-11-24T05:12:39.439Z,100.00
2022-11-24T05:15:06.957Z,100.00
2022-11-24T05:17:38.218Z,100.00
2022-11-24T05:20:06.242Z,100.00
2022-11-24T05:22:32.798Z,100.00
2022-11-24T05:24:59.457Z,100.00
2022-11-24T05:27:26.040Z,100.00
2022-11-24T05:29:52.693Z,100.00
2022-11-24T05:32:19.444Z,100.00
2022-11-24T05:34:46.207Z,100.00
2022-11-24T05:37:13.437Z,100.00
2022-11-24T05:39:40.412Z,100.00
2022-11-24T05:42:26.628Z,100.00
2022-11-24T05:44:53.758Z,100.00
2022-11-24T05:47:21.268Z,100.00
2022-11-24T05:49:47.917Z,100.00
2022-11-24T05:52:15.357Z,100.00
2022-11-24T05:54:41.982Z,100.00
2022-11-24T05:57:08.722Z,100.00
2022-11-24T05:59:35.703Z,100.00
2022-11-24T06:02:03.003Z,100.00
2022-11-24T06:04:29.899Z,100.00
2022-11-24T06:06:56.871Z,100.00
2022-11-24T06:09:23.946Z,100.00
2022-11-24T06:11:51.091Z,100.00
2022-11-24T06:14:17.669Z,100.00
2022-11-24T06:16:44.328Z,100.00
2022-11-24T06:19:11.861Z,100.00
2022-11-24T06:21:38.848Z,100.00
2022-11-24T06:24:06.147Z,100.00
2022-11-24T06:26:32.976Z,100.00
2022-11-24T06:28:59.959Z,100.00
2022-11-24T06:31:27.367Z,100.00
2022-11-24T06:33:54.036Z,100.00
2022-11-24T06:36:20.586Z,100.00
2022-11-24T06:38:47.385Z,100.00
2022-11-24T06:41:15.776Z,100.00
2022-11-24T06:43:43.038Z,100.00
2022-11-24T06:46:10.486Z,100.00
2022-11-24T06:48:37.737Z,100.00
2022-11-24T06:51:07.926Z,100.00
2022-11-24T06:53:39.512Z,100.00
2022-11-24T06:56:16.307Z,100.00
2022-11-24T06:58:46.390Z,100.00
2022-11-24T07:01:25.127Z,100.00
2022-11-24T07:03:52.977Z,100.00
2022-11-24T07:06:20.793Z,100.00
2022-11-24T07:08:47.805Z,100.00
2022-11-24T07:11:17.090Z,100.00
2022-11-24T07:13:44.900Z,100.00
2022-11-24T07:16:21.025Z,100.00
2022-11-24T07:18:49.307Z,100.00
2022-11-24T07:21:16.309Z,100.00
2022-11-24T07:23:43.438Z,100.00
2022-11-24T07:26:11.181Z,100.00
2022-11-24T07:28:38.029Z,100.00
2022-11-24T07:31:09.994Z,100.00
2022-11-24T07:33:36.968Z,100.00
2022-11-24T07:36:05.710Z,100.00
2022-11-24T07:38:33.090Z,100.00
2022-11-24T07:41:08.306Z,100.00
2022-11-24T07:43:36.282Z,100.00
2022-11-24T07:46:05.048Z,100.00
2022-11-24T07:48:32.208Z,100.00
2022-11-24T07:51:00.449Z,100.00
2022-11-24T07:53:27.860Z,100.00
2022-11-24T07:56:00.373Z,100.00
2022-11-24T07:58:32.617Z,100.00
2022-11-24T08:01:00.338Z,100.00
2022-11-24T08:03:27.323Z,100.00
2022-11-24T08:08:46.094Z,100.00
2022-11-24T08:11:15.386Z,100.00
2022-11-24T08:13:43.011Z,100.00
2022-11-24T08:16:15.581Z,100.00
2022-11-24T08:18:42.959Z,100.00
2022-11-24T08:21:14.268Z,100.00
2022-11-24T08:23:41.749Z,100.00
2022-11-24T08:26:15.924Z,100.00
2022-11-24T08:28:43.250Z,100.00
2022-11-24T08:31:15.191Z,100.00
2022-11-24T08:33:42.634Z,100.00
2022-11-24T08:36:12.499Z,100.00
2022-11-24T08:38:39.675Z,100.00
2022-11-24T08:41:09.973Z,100.00
2022-11-24T08:43:37.277Z,100.00
2022-11-24T08:46:07.234Z,100.00
2022-11-24T08:48:34.724Z,100.00
2022-11-24T08:51:08.522Z,100.00
2022-11-24T08:53:35.511Z,100.00
2022-11-24T08:56:02.692Z,100.00
2022-11-24T08:58:30.143Z,100.00
2022-11-24T09:01:05.433Z,100.00
2022-11-24T09:03:32.349Z,100.00
2022-11-24T09:05:58.989Z,100.00
2022-11-24T09:08:25.676Z,100.00
2022-11-24T09:10:52.536Z,100.00
2022-11-24T09:13:19.045Z,100.00
2022-11-24T09:15:45.759Z,100.00
2022-11-24T09:18:12.345Z,100.00
2022-11-24T09:20:38.917Z,100.00
2022-11-24T09:23:05.672Z,100.00
2022-11-24T09:25:33.200Z,100.00
2022-11-24T09:28:00.177Z,100.00
2022-11-24T09:30:27.186Z,100.00
2022-11-24T09:32:56.510Z,100.00
2022-11-24T09:35:23.279Z,100.00
2022-11-24T09:37:50.028Z,100.00
2022-11-24T09:40:17.454Z,100.00
2022-11-24T09:43:12.415Z,100.00
2022-11-24T09:46:11.200Z,100.00
2022-11-24T09:48:46.418Z,100.00
2022-11-24T09:51:15.542Z,100.00
2022-11-24T09:54:06.112Z,100.00
2022-11-24T09:56:40.547Z,100.00
2022-11-24T09:59:12.814Z,100.00
2022-11-24T10:01:42.715Z,100.00
2022-11-24T10:04:22.604Z,100.00
2022-11-24T10:07:21.240Z,100.00
2022-11-24T10:10:09.329Z,100.00
2022-11-24T10:13:07.072Z,100.00
2022-11-24T10:15:54.891Z,100.00
2022-11-24T10:18:55.287Z,100.00
2022-11-24T10:21:24.825Z,100.00
2022-11-24T10:24:04.000Z,99.82
2022-11-24T10:26:36.440Z,100.00
2022-11-24T10:29:42.397Z,100.00
2022-11-24T10:32:40.341Z,99.68
2022-11-24T10:35:35.548Z,99.32
2022-11-24T10:38:11.383Z,98.30
2022-11-24T10:41:10.498Z,98.69
2022-11-24T10:43:39.333Z,98.30
2022-11-24T10:46:19.769Z,99.17
2022-11-24T10:48:51.857Z,97.55
2022-11-24T10:51:37.041Z,96.26
2022-11-24T10:54:13.123Z,96.00
2022-11-24T10:56:41.334Z,96.05
2022-11-24T10:59:28.262Z,95.97
2022-11-24T11:01:55.642Z,96.82
2022-11-24T11:04:29.198Z,97.08
2022-11-24T11:07:28.597Z,96.84
2022-11-24T11:10:19.944Z,96.46
2022-11-24T11:12:47.075Z,97.06
2022-11-24T11:15:31.326Z,95.59
2022-11-24T11:18:01.551Z,96.24
2022-11-24T11:20:33.593Z,97.02
2022-11-24T11:23:06.232Z,99.31
2022-11-24T11:25:35.227Z,100.00
2022-11-24T11:28:18.385Z,100.00
2022-11-24T11:31:19.244Z,100.00
2022-11-24T11:34:21.787Z,99.13
2022-11-24T11:36:54.849Z,99.61
2022-11-24T11:39:36.584Z,99.05
2022-11-24T11:42:37.891Z,98.48
2022-11-24T11:45:05.745Z,98.32
2022-11-24T11:47:44.386Z,99.11
2022-11-24T11:50:23.228Z,98.71
2022-11-24T11:53:30.550Z,98.80
2022-11-24T11:56:15.660Z,98.37
2022-11-24T11:59:04.385Z,98.29
2022-11-24T12:01:52.926Z,99.46
2022-11-24T12:04:37.885Z,98.54
2022-11-24T12:07:45.357Z,99.50
2022-11-24T12:10:18.080Z,99.78
2022-11-24T12:12:59.979Z,99.54
2022-11-24T12:15:47.787Z,99.85
2022-11-24T12:18:57.248Z,98.89
2022-11-24T12:21:49.250Z,99.05
2022-11-24T12:24:37.288Z,99.07
2022-11-24T12:27:37.141Z,98.52
2022-11-24T12:30:17.094Z,98.42
2022-11-24T12:32:57.644Z,97.21
2022-11-24T12:35:41.029Z,97.57
2022-11-24T12:38:13.500Z,97.31
2022-11-24T12:41:33.597Z,96.67
2022-11-24T12:43:59.825Z,96.52
2022-11-24T12:46:35.544Z,96.25
2022-11-24T12:49:20.639Z,95.46
2022-11-24T12:52:00.373Z,95.52
2022-11-24T12:54:35.608Z,96.15
2022-11-24T12:57:19.317Z,95.22
2022-11-24T13:00:02.780Z,95.24
2022-11-24T13:03:12.481Z,95.10
2022-11-24T13:05:42.068Z,94.71
2022-11-24T13:08:09.880Z,95.01
2022-11-24T13:10:55.391Z,94.72
2022-11-24T13:13:30.285Z,94.73
2022-11-24T13:16:20.674Z,94.85
2022-11-24T13:19:00.699Z,94.52
2022-11-24T13:21:48.823Z,95.33
2022-11-24T13:24:41.490Z,94.58
2022-11-24T13:27:42.055Z,93.97
2022-11-24T13:30:44.230Z,92.73
2022-11-24T13:33:42.347Z,93.49
2022-11-24T13:36:11.935Z,94.01
2022-11-24T13:38:43.443Z,94.47
2022-11-24T13:41:32.393Z,93.60
2022-11-24T13:44:30.195Z,92.86
2022-11-24T13:47:21.254Z,92.28
2022-11-24T13:52:48.159Z,91.89
2022-11-24T13:55:20.218Z,91.04
2022-11-24T13:57:50.296Z,91.42
2022-11-24T14:00:38.582Z,90.60
2022-11-24T14:03:17.508Z,91.41
2022-11-24T14:05:58.129Z,91.37
2022-11-24T14:08:44.691Z,91.41
2022-11-24T14:11:16.706Z,92.31
2022-11-24T14:13:44.369Z,91.09
2022-11-24T14:16:17.721Z,90.92
2022-11-24T14:18:49.418Z,91.19
2022-11-24T14:21:27.340Z,91.27
2022-11-24T14:24:03.770Z,90.40
2022-11-24T14:26:36.593Z,89.93
2022-11-24T14:29:28.170Z,90.05
2022-11-24T14:32:03.564Z,90.12
2022-11-24T14:34:32.077Z,90.58
2022-11-24T14:37:00.969Z,91.39
2022-11-24T14:39:37.550Z,91.95
2022-11-24T14:42:15.034Z,90.97
2022-11-24T14:44:41.575Z,90.88
2022-11-24T14:47:18.926Z,90.69
2022-11-24T14:49:46.071Z,90.70
2022-11-24T14:52:19.175Z,91.41
2022-11-24T14:54:51.529Z,90.99
2022-11-24T14:57:30.257Z,90.87
2022-11-24T15:00:12.193Z,90.69
2022-11-24T15:02:41.313Z,90.67
2022-11-24T15:05:08.362Z,90.27
2022-11-24T15:07:38.700Z,90.71
2022-11-24T15:10:17.822Z,90.93
2022-11-24T15:12:53.786Z,91.08
2022-11-24T15:15:33.621Z,90.66
2022-11-24T15:18:02.125Z,90.88
2022-11-24T15:20:44.516Z,90.64
2022-11-24T15:23:56.075Z,91.18
2022-11-24T15:26:40.204Z,91.78
2022-11-24T15:29:11.099Z,92.50
2022-11-24T15:31:44.207Z,92.95
2022-11-24T15:34:14.692Z,92.69
2022-11-24T15:36:41.372Z,92.87
2022-11-24T15:39:09.468Z,92.78
2022-11-24T15:41:38.517Z,93.09
2022-11-24T15:44:10.081Z,93.19
2022-11-24T15:46:58.993Z,93.58
2022-11-24T15:49:30.361Z,93.08
2022-11-24T15:51:58.056Z,93.40
2022-11-24T15:54:34.569Z,93.88
2022-11-24T15:57:18.960Z,94.05
2022-11-24T15:59:53.658Z,94.06
2022-11-24T16:02:26.232Z,94.19
2022-11-24T16:05:16.537Z,94.47
2022-11-24T16:08:13.542Z,93.86
2022-11-24T16:10:49.955Z,94.25
2022-11-24T16:13:19.944Z,93.77
2022-11-24T16:15:48.132Z,93.49
2022-11-24T16:18:18.484Z,93.66
2022-11-24T16:20:48.553Z,93.76
2022-11-24T16:23:17.677Z,94.18
2022-11-24T16:25:47.437Z,94.50
2022-11-24T16:28:18.322Z,95.17
2022-11-24T16:30:51.679Z,95.27
2022-11-24T16:33:41.376Z,94.65
2022-11-24T16:36:08.715Z,95.90
2022-11-24T16:38:42.780Z,95.50
2022-11-24T16:41:14.864Z,95.24
2022-11-24T16:43:47.607Z,95.14
2022-11-24T16:46:17.506Z,95.38
2022-11-24T16:49:04.184Z,95.05
2022-11-24T16:51:37.424Z,95.48
2022-11-24T16:54:09.090Z,95.46
2022-11-24T16:56:49.345Z,96.35
2022-11-24T16:59:23.591Z,96.46
2022-11-24T17:02:07.581Z,96.45
2022-11-24T17:04:38.692Z,96.71
2022-11-24T17:07:06.418Z,96.28
2022-11-24T17:09:40.543Z,97.06
2022-11-24T17:12:07.685Z,97.04
2022-11-24T17:14:38.084Z,96.83
2022-11-24T17:17:12.008Z,97.10
2022-11-24T17:19:38.683Z,97.04
2022-11-24T17:22:05.482Z,97.16
2022-11-24T17:24:33.507Z,97.41
2022-11-24T17:27:00.936Z,96.83
2022-11-24T17:29:31.161Z,96.01
2022-11-24T17:32:06.845Z,96.64
2022-11-24T17:34:37.244Z,96.89
2022-11-24T17:37:04.092Z,97.47
2022-11-24T17:39:31.772Z,97.71
2022-11-24T17:42:00.712Z,97.19
2022-11-24T17:44:33.355Z,96.80
2022-11-24T17:47:06.411Z,97.39
2022-11-24T17:50:04.385Z,98.24
2022-11-24T17:52:37.272Z,97.99
2022-11-24T17:55:04.642Z,98.38
2022-11-24T17:57:48.014Z,98.35
2022-11-24T18:03:56.369Z,98.09
2022-11-24T18:06:41.602Z,98.61
2022-11-24T18:13:59.940Z,97.62
2022-11-24T18:20:24.403Z,98.73
2022-11-24T18:23:05.847Z,99.02
2022-11-24T18:25:47.246Z,99.08
2022-11-24T18:28:14.723Z,99.14
2022-11-24T18:30:59.228Z,99.23
2022-11-24T18:33:52.401Z,99.11
2022-11-24T18:36:31.139Z,99.24
2022-11-24T18:40:06.905Z,99.22
2022-11-24T18:43:03.558Z,99.72
2022-11-24T18:46:04.743Z,99.81
2022-11-24T18:49:16.775Z,99.85
2022-11-24T18:52:09.257Z,100.00
2022-11-24T18:58:44.999Z,99.94
2022-11-24T19:01:17.472Z,99.91
2022-11-24T19:04:42.598Z,100.00
2022-11-24T19:08:02.996Z,100.00
2022-11-24T19:11:04.151Z,99.32
2022-11-24T19:13:50.745Z,100.00
2022-11-24T19:16:23.581Z,99.72
2022-11-24T19:19:06.462Z,99.14
2022-11-24T19:23:23.590Z,99.50
2022-11-24T19:26:39.748Z,99.42
2022-11-24T19:28:57.019Z,99.09
2022-11-24T19:31:34.831Z,100.00
2022-11-24T19:34:21.909Z,100.00
2022-11-24T19:37:01.191Z,100.00
2022-11-24T19:39:41.575Z,100.00
2022-11-24T19:48:35.746Z,99.74
2022-11-24T19:51:40.422Z,99.22
2022-11-24T19:54:22.983Z,99.15
2022-11-24T19:57:02.175Z,99.03
2022-11-24T20:11:07.900Z,98.84
2022-11-24T20:14:22.388Z,99.35
2022-11-24T20:23:44.537Z,100.00
2022-11-24T20:27:40.355Z,100.00
2022-11-24T20:30:36.723Z,100.00
2022-11-24T20:33:41.497Z,100.00
2022-11-24T20:37:01.800Z,100.00
2022-11-24T20:39:47.358Z,100.00
2022-11-24T20:42:39.509Z,100.00
2022-11-24T20:45:40.297Z,100.00
2022-11-24T20:48:31.868Z,100.00
2022-11-24T20:51:18.165Z,100.00
2022-11-24T20:54:00.523Z,100.00
2022-11-24T20:56:35.880Z,100.00
2022-11-24T20:59:03.635Z,100.00
2022-11-24T21:01:38.801Z,100.00
2022-11-24T21:04:08.231Z,100.00
2022-11-24T21:06:35.109Z,100.00
2022-11-24T21:09:03.899Z,100.00
2022-11-24T21:11:31.878Z,100.00
2022-11-24T21:13:59.274Z,100.00
2022-11-24T21:16:29.145Z,100.00
2022-11-24T21:18:58.944Z,100.00
2022-11-24T21:21:33.253Z,99.93
2022-11-24T21:24:05.463Z,100.00
2022-11-24T21:26:34.908Z,100.00
2022-11-24T21:29:01.677Z,100.00
2022-11-24T21:31:28.330Z,100.00
2022-11-24T21:33:55.344Z,100.00
2022-11-24T21:36:24.528Z,100.00
2022-11-24T21:38:58.868Z,100.00
2022-11-24T21:41:27.844Z,100.00
2022-11-24T21:43:58.588Z,100.00
2022-11-24T21:46:25.380Z,100.00
2022-11-24T21:48:51.958Z,100.00
2022-11-24T21:51:20.658Z,100.00
2022-11-24T21:53:47.919Z,100.00
2022-11-24T21:56:17.124Z,100.00
2022-11-24T21:58:48.139Z,100.00
2022-11-24T22:01:16.334Z,99.98
2022-11-24T22:03:43.593Z,100.00
2022-11-24T22:06:10.588Z,100.00
2022-11-24T22:08:37.277Z,100.00
2022-11-24T22:11:11.184Z,100.00
2022-11-24T22:13:37.942Z,100.00
2022-11-24T22:16:24.382Z,100.00
2022-11-24T22:18:51.469Z,100.00
2022-11-24T22:21:33.497Z,100.00
2022-11-24T22:24:01.209Z,100.00
2022-11-24T22:26:29.406Z,100.00
2022-11-24T22:28:57.748Z,100.00
2022-11-24T22:31:32.279Z,100.00
2022-11-24T22:34:00.365Z,100.00
2022-11-24T22:36:29.276Z,100.00
2022-11-24T22:39:04.055Z,100.00
2022-11-24T22:41:33.303Z,100.00
2022-11-24T22:43:59.892Z,100.00
2022-11-24T22:46:28.031Z,100.00
2022-11-24T22:48:55.131Z,100.00
2022-11-24T22:51:24.860Z,100.00
2022-11-24T22:53:54.173Z,100.00
2022-11-24T22:56:23.279Z,100.00
2022-11-24T22:58:50.321Z,100.00
2022-11-24T23:01:19.260Z,100.00
2022-11-24T23:03:46.745Z,100.00
2022-11-24T23:06:15.854Z,100.00
2022-11-24T23:08:43.305Z,100.00
2022-11-24T23:11:34.821Z,100.00
2022-11-24T23:14:03.406Z,100.00
2022-11-24T23:16:30.516Z,100.00
2022-11-24T23:18:57.417Z,100.00
2022-11-24T23:21:26.948Z,100.00
2022-11-24T23:23:53.982Z,100.00
2022-11-24T23:26:26.019Z,100.00
2022-11-24T23:28:52.613Z,100.00
2022-11-24T23:31:21.856Z,100.00
2022-11-24T23:33:48.454Z,100.00
2022-11-24T23:36:20.695Z,100.00
2022-11-24T23:38:48.363Z,100.00
2022-11-24T23:41:20.484Z,100.00
2022-11-24T23:43:47.217Z,100.00
2022-11-24T23:46:16.975Z,100.00
2022-11-24T23:48:44.416Z,100.00
2022-11-24T23:51:28.325Z,100.00
2022-11-24T23:53:56.219Z,100.00
2022-11-24T23:56:25.854Z,100.00
2022-11-24T23:58:52.408Z,100.00
